sensor_id;sensor_type;location;lat;lon;timestamp;pressure;altitude;pressure_sealevel;temperature;humidity
21555;BME280;10938;44.794;-0.676;2022-07-25T00:01:47;101116.44;;;31.24;nan
21555;BME280;10938;44.794;-0.676;2022-07-25T00:04:12;101116.75;;;30.50;nan
21555;BME280;10938;44.794;-0.676;2022-07-25T00:06:38;101119.59;;;30.05;nan
21555;BME280;10938;44.794;-0.676;2022-07-25T00:09:04;101114.97;;;30.07;nan
21555;BME280;10938;44.794;-0.676;2022-07-25T00:11:30;101112.22;;;31.99;nan
21555;BME280;10938;44.794;-0.676;2022-07-25T00:13:55;101118.59;;;32.10;nan
21555;BME280;10938;44.794;-0.676;2022-07-25T00:16:21;101126.56;;;30.51;nan
21555;BME280;10938;44.794;-0.676;2022-07-25T00:18:46;101132.09;;;30.20;nan
21555;BME280;10938;44.794;-0.676;2022-07-25T00:21:12;101134.97;;;30.17;nan
21555;BME280;10938;44.794;-0.676;2022-07-25T00:23:37;101130.06;;;30.09;nan
21555;BME280;10938;44.794;-0.676;2022-07-25T00:26:03;101137.94;;;29.83;nan
21555;BME280;10938;44.794;-0.676;2022-07-25T00:28:28;101134.09;;;30.02;nan
21555;BME280;10938;44.794;-0.676;2022-07-25T00:30:54;101143.47;;;30.25;nan
21555;BME280;10938;44.794;-0.676;2022-07-25T00:33:19;101149.34;;;29.88;nan
21555;BME280;10938;44.794;-0.676;2022-07-25T00:35:45;101145.59;;;29.90;nan
21555;BME280;10938;44.794;-0.676;2022-07-25T00:38:10;101147.34;;;29.76;nan
21555;BME280;10938;44.794;-0.676;2022-07-25T00:40:36;101137.13;;;30.54;nan
21555;BME280;10938;44.794;-0.676;2022-07-25T00:43:01;101136.13;;;30.27;nan
21555;BME280;10938;44.794;-0.676;2022-07-25T00:45:27;101138.47;;;30.61;nan
21555;BME280;10938;44.794;-0.676;2022-07-25T00:47:52;101148.25;;;30.77;nan
21555;BME280;10938;44.794;-0.676;2022-07-25T00:50:18;101143.06;;;31.02;nan
21555;BME280;10938;44.794;-0.676;2022-07-25T00:52:44;101148.25;;;31.05;nan
21555;BME280;10938;44.794;-0.676;2022-07-25T00:55:11;101151.16;;;31.02;nan
21555;BME280;10938;44.794;-0.676;2022-07-25T00:57:36;101154.81;;;31.28;nan
21555;BME280;10938;44.794;-0.676;2022-07-25T01:00:05;101163.09;;;30.98;nan
21555;BME280;10938;44.794;-0.676;2022-07-25T01:02:31;101152.94;;;31.42;nan
21555;BME280;10938;44.794;-0.676;2022-07-25T01:04:56;101164.56;;;29.57;nan
21555;BME280;10938;44.794;-0.676;2022-07-25T01:07:23;101162.84;;;29.56;nan
21555;BME280;10938;44.794;-0.676;2022-07-25T01:09:49;101155.00;;;29.22;nan
21555;BME280;10938;44.794;-0.676;2022-07-25T01:12:14;101154.09;;;29.53;nan
21555;BME280;10938;44.794;-0.676;2022-07-25T01:14:40;101152.03;;;29.88;nan
21555;BME280;10938;44.794;-0.676;2022-07-25T01:17:05;101149.63;;;29.38;nan
21555;BME280;10938;44.794;-0.676;2022-07-25T01:19:31;101152.63;;;29.16;nan
21555;BME280;10938;44.794;-0.676;2022-07-25T01:21:56;101154.19;;;29.51;nan
21555;BME280;10938;44.794;-0.676;2022-07-25T01:24:22;101159.91;;;29.91;nan
21555;BME280;10938;44.794;-0.676;2022-07-25T01:26:47;101167.03;;;29.76;nan
21555;BME280;10938;44.794;-0.676;2022-07-25T01:29:12;101164.31;;;30.92;nan
21555;BME280;10938;44.794;-0.676;2022-07-25T01:31:38;101162.41;;;30.66;nan
21555;BME280;10938;44.794;-0.676;2022-07-25T01:34:03;101168.00;;;31.98;nan
21555;BME280;10938;44.794;-0.676;2022-07-25T01:36:28;101172.84;;;29.39;nan
21555;BME280;10938;44.794;-0.676;2022-07-25T01:38:54;101171.91;;;28.76;nan
21555;BME280;10938;44.794;-0.676;2022-07-25T01:41:19;101179.72;;;28.80;nan
21555;BME280;10938;44.794;-0.676;2022-07-25T01:43:45;101180.19;;;29.04;nan
21555;BME280;10938;44.794;-0.676;2022-07-25T01:46:10;101179.84;;;28.94;nan
21555;BME280;10938;44.794;-0.676;2022-07-25T01:48:36;101186.84;;;28.97;nan
21555;BME280;10938;44.794;-0.676;2022-07-25T01:51:01;101187.66;;;28.99;nan
21555;BME280;10938;44.794;-0.676;2022-07-25T01:53:26;101188.19;;;29.37;nan
21555;BME280;10938;44.794;-0.676;2022-07-25T01:55:52;101190.06;;;29.19;nan
21555;BME280;10938;44.794;-0.676;2022-07-25T01:58:19;101194.44;;;29.37;nan
21555;BME280;10938;44.794;-0.676;2022-07-25T02:00:44;101199.59;;;29.72;nan
21555;BME280;10938;44.794;-0.676;2022-07-25T02:03:10;101193.44;;;29.07;nan
21555;BME280;10938;44.794;-0.676;2022-07-25T02:05:54;101197.66;;;28.80;nan
21555;BME280;10938;44.794;-0.676;2022-07-25T02:08:19;101197.00;;;29.23;nan
21555;BME280;10938;44.794;-0.676;2022-07-25T02:10:44;101198.75;;;29.40;nan
21555;BME280;10938;44.794;-0.676;2022-07-25T02:13:10;101204.66;;;28.82;nan
21555;BME280;10938;44.794;-0.676;2022-07-25T02:15:35;101199.94;;;29.03;nan
21555;BME280;10938;44.794;-0.676;2022-07-25T02:18:01;101192.16;;;29.14;nan
21555;BME280;10938;44.794;-0.676;2022-07-25T02:20:26;101200.97;;;28.85;nan
21555;BME280;10938;44.794;-0.676;2022-07-25T02:22:52;101198.41;;;29.30;nan
21555;BME280;10938;44.794;-0.676;2022-07-25T02:25:17;101205.34;;;29.34;nan
21555;BME280;10938;44.794;-0.676;2022-07-25T02:27:42;101209.84;;;29.18;nan
21555;BME280;10938;44.794;-0.676;2022-07-25T02:30:08;101202.47;;;29.22;nan
21555;BME280;10938;44.794;-0.676;2022-07-25T02:32:34;101207.03;;;29.67;nan
21555;BME280;10938;44.794;-0.676;2022-07-25T02:34:59;101206.09;;;29.05;nan
21555;BME280;10938;44.794;-0.676;2022-07-25T02:37:25;101202.88;;;28.98;nan
21555;BME280;10938;44.794;-0.676;2022-07-25T02:39:50;101208.13;;;28.69;nan
21555;BME280;10938;44.794;-0.676;2022-07-25T02:42:16;101211.41;;;28.74;nan
21555;BME280;10938;44.794;-0.676;2022-07-25T02:44:41;101211.94;;;29.44;nan
21555;BME280;10938;44.794;-0.676;2022-07-25T02:47:06;101209.34;;;29.27;nan
21555;BME280;10938;44.794;-0.676;2022-07-25T02:49:32;101210.59;;;28.89;nan
21555;BME280;10938;44.794;-0.676;2022-07-25T02:51:57;101216.44;;;30.19;nan
21555;BME280;10938;44.794;-0.676;2022-07-25T02:54:22;101213.97;;;29.71;nan
21555;BME280;10938;44.794;-0.676;2022-07-25T02:56:48;101215.44;;;31.76;nan
21555;BME280;10938;44.794;-0.676;2022-07-25T02:59:13;101205.81;;;28.94;nan
21555;BME280;10938;44.794;-0.676;2022-07-25T03:01:39;101211.59;;;31.92;nan
21555;BME280;10938;44.794;-0.676;2022-07-25T03:04:04;101207.75;;;28.92;nan
21555;BME280;10938;44.794;-0.676;2022-07-25T03:06:30;101208.72;;;29.38;nan
21555;BME280;10938;44.794;-0.676;2022-07-25T03:08:55;101208.91;;;28.71;nan
21555;BME280;10938;44.794;-0.676;2022-07-25T03:11:21;101209.59;;;28.74;nan
21555;BME280;10938;44.794;-0.676;2022-07-25T03:13:46;101199.56;;;28.78;nan
21555;BME280;10938;44.794;-0.676;2022-07-25T03:16:11;101204.34;;;28.55;nan
21555;BME280;10938;44.794;-0.676;2022-07-25T03:18:37;101200.31;;;28.47;nan
21555;BME280;10938;44.794;-0.676;2022-07-25T03:21:02;101204.34;;;28.88;nan
21555;BME280;10938;44.794;-0.676;2022-07-25T03:23:28;101198.41;;;29.14;nan
21555;BME280;10938;44.794;-0.676;2022-07-25T03:25:55;101206.56;;;29.44;nan
21555;BME280;10938;44.794;-0.676;2022-07-25T03:28:20;101204.19;;;29.54;nan
21555;BME280;10938;44.794;-0.676;2022-07-25T03:30:46;101216.09;;;29.34;nan
21555;BME280;10938;44.794;-0.676;2022-07-25T03:33:11;101199.53;;;29.26;nan
21555;BME280;10938;44.794;-0.676;2022-07-25T03:35:40;101209.38;;;28.61;nan
21555;BME280;10938;44.794;-0.676;2022-07-25T03:38:05;101209.97;;;29.78;nan
21555;BME280;10938;44.794;-0.676;2022-07-25T03:40:31;101213.84;;;29.27;nan
21555;BME280;10938;44.794;-0.676;2022-07-25T03:42:56;101218.69;;;29.36;nan
21555;BME280;10938;44.794;-0.676;2022-07-25T03:45:22;101216.03;;;29.03;nan
21555;BME280;10938;44.794;-0.676;2022-07-25T03:47:47;101218.53;;;28.90;nan
21555;BME280;10938;44.794;-0.676;2022-07-25T03:50:12;101216.38;;;28.97;nan
21555;BME280;10938;44.794;-0.676;2022-07-25T03:52:38;101216.69;;;29.55;nan
21555;BME280;10938;44.794;-0.676;2022-07-25T03:55:05;101213.28;;;29.20;nan
21555;BME280;10938;44.794;-0.676;2022-07-25T03:57:31;101211.53;;;29.03;nan
21555;BME280;10938;44.794;-0.676;2022-07-25T03:59:56;101215.56;;;29.43;nan
21555;BME280;10938;44.794;-0.676;2022-07-25T04:02:22;101218.69;;;29.36;nan
21555;BME280;10938;44.794;-0.676;2022-07-25T04:04:47;101223.84;;;29.23;nan
21555;BME280;10938;44.794;-0.676;2022-07-25T04:07:12;101229.88;;;29.44;nan
21555;BME280;10938;44.794;-0.676;2022-07-25T04:09:38;101227.69;;;29.50;nan
21555;BME280;10938;44.794;-0.676;2022-07-25T04:12:04;101229.22;;;29.23;nan
21555;BME280;10938;44.794;-0.676;2022-07-25T04:14:29;101228.94;;;28.63;nan
21555;BME280;10938;44.794;-0.676;2022-07-25T04:16:55;101232.56;;;29.28;nan
21555;BME280;10938;44.794;-0.676;2022-07-25T04:19:20;101226.97;;;29.00;nan
21555;BME280;10938;44.794;-0.676;2022-07-25T04:21:46;101236.50;;;28.73;nan
21555;BME280;10938;44.794;-0.676;2022-07-25T04:24:11;101240.16;;;28.72;nan
21555;BME280;10938;44.794;-0.676;2022-07-25T04:26:36;101239.66;;;28.81;nan
21555;BME280;10938;44.794;-0.676;2022-07-25T04:29:02;101237.72;;;28.33;nan
21555;BME280;10938;44.794;-0.676;2022-07-25T04:31:28;101241.59;;;28.27;nan
21555;BME280;10938;44.794;-0.676;2022-07-25T04:33:54;101241.22;;;28.18;nan
21555;BME280;10938;44.794;-0.676;2022-07-25T04:36:19;101246.97;;;28.44;nan
21555;BME280;10938;44.794;-0.676;2022-07-25T04:38:45;101252.66;;;28.21;nan
21555;BME280;10938;44.794;-0.676;2022-07-25T04:41:10;101253.38;;;28.07;nan
21555;BME280;10938;44.794;-0.676;2022-07-25T04:43:36;101251.00;;;28.86;nan
21555;BME280;10938;44.794;-0.676;2022-07-25T04:46:01;101252.00;;;28.68;nan
21555;BME280;10938;44.794;-0.676;2022-07-25T04:48:27;101252.22;;;28.46;nan
21555;BME280;10938;44.794;-0.676;2022-07-25T04:50:52;101250.63;;;28.76;nan
21555;BME280;10938;44.794;-0.676;2022-07-25T04:53:18;101256.81;;;28.44;nan
21555;BME280;10938;44.794;-0.676;2022-07-25T04:55:43;101250.44;;;28.29;nan
21555;BME280;10938;44.794;-0.676;2022-07-25T04:58:09;101261.88;;;28.33;nan
21555;BME280;10938;44.794;-0.676;2022-07-25T05:00:35;101252.16;;;28.64;nan
21555;BME280;10938;44.794;-0.676;2022-07-25T05:03:00;101262.72;;;28.85;nan
21555;BME280;10938;44.794;-0.676;2022-07-25T05:05:26;101264.09;;;29.40;nan
21555;BME280;10938;44.794;-0.676;2022-07-25T05:07:58;101263.38;;;29.21;nan
21555;BME280;10938;44.794;-0.676;2022-07-25T05:10:25;101266.28;;;29.01;nan
21555;BME280;10938;44.794;-0.676;2022-07-25T05:12:51;101270.94;;;29.30;nan
21555;BME280;10938;44.794;-0.676;2022-07-25T05:15:17;101272.22;;;30.31;nan
21555;BME280;10938;44.794;-0.676;2022-07-25T05:17:42;101272.53;;;32.09;nan
21555;BME280;10938;44.794;-0.676;2022-07-25T05:20:09;101271.16;;;33.79;nan
21555;BME280;10938;44.794;-0.676;2022-07-25T05:22:35;101283.47;;;35.65;nan
21555;BME280;10938;44.794;-0.676;2022-07-25T05:25:00;101282.69;;;36.17;nan
21555;BME280;10938;44.794;-0.676;2022-07-25T05:27:27;101288.34;;;37.57;nan
21555;BME280;10938;44.794;-0.676;2022-07-25T05:29:52;101300.94;;;38.37;nan
21555;BME280;10938;44.794;-0.676;2022-07-25T05:32:18;101292.03;;;38.06;nan
21555;BME280;10938;44.794;-0.676;2022-07-25T05:34:44;101288.78;;;36.92;nan
21555;BME280;10938;44.794;-0.676;2022-07-25T05:37:09;101290.25;;;35.04;nan
21555;BME280;10938;44.794;-0.676;2022-07-25T05:39:35;101278.81;;;33.48;nan
21555;BME280;10938;44.794;-0.676;2022-07-25T05:42:04;101296.50;;;33.16;nan
21555;BME280;10938;44.794;-0.676;2022-07-25T05:44:29;101286.25;;;32.83;nan
21555;BME280;10938;44.794;-0.676;2022-07-25T05:46:55;101297.66;;;32.49;nan
21555;BME280;10938;44.794;-0.676;2022-07-25T05:49:20;101290.78;;;32.70;nan
21555;BME280;10938;44.794;-0.676;2022-07-25T05:51:45;101297.88;;;33.34;nan
21555;BME280;10938;44.794;-0.676;2022-07-25T05:54:11;101303.63;;;34.02;nan
21555;BME280;10938;44.794;-0.676;2022-07-25T05:56:36;101306.63;;;34.69;nan
21555;BME280;10938;44.794;-0.676;2022-07-25T05:59:02;101297.78;;;36.10;nan
21555;BME280;10938;44.794;-0.676;2022-07-25T06:01:27;101311.06;;;38.83;nan
21555;BME280;10938;44.794;-0.676;2022-07-25T06:03:53;101309.78;;;39.14;nan
21555;BME280;10938;44.794;-0.676;2022-07-25T06:06:18;101318.03;;;40.31;nan
21555;BME280;10938;44.794;-0.676;2022-07-25T06:08:44;101326.53;;;41.49;nan
21555;BME280;10938;44.794;-0.676;2022-07-25T06:11:09;101322.06;;;41.98;nan
21555;BME280;10938;44.794;-0.676;2022-07-25T06:13:35;101323.28;;;42.92;nan
21555;BME280;10938;44.794;-0.676;2022-07-25T06:16:00;101324.81;;;40.45;nan
21555;BME280;10938;44.794;-0.676;2022-07-25T06:18:26;101321.00;;;38.36;nan
21555;BME280;10938;44.794;-0.676;2022-07-25T06:20:52;101323.28;;;37.12;nan
21555;BME280;10938;44.794;-0.676;2022-07-25T06:23:18;101322.44;;;36.18;nan
21555;BME280;10938;44.794;-0.676;2022-07-25T06:25:44;101329.09;;;35.49;nan
21555;BME280;10938;44.794;-0.676;2022-07-25T06:28:09;101326.34;;;34.93;nan
21555;BME280;10938;44.794;-0.676;2022-07-25T06:30:35;101329.06;;;34.47;nan
21555;BME280;10938;44.794;-0.676;2022-07-25T06:33:00;101348.13;;;34.81;nan
21555;BME280;10938;44.794;-0.676;2022-07-25T06:35:26;101342.28;;;34.28;nan
21555;BME280;10938;44.794;-0.676;2022-07-25T06:37:51;101344.50;;;34.10;nan
21555;BME280;10938;44.794;-0.676;2022-07-25T06:40:17;101333.69;;;34.34;nan
21555;BME280;10938;44.794;-0.676;2022-07-25T06:42:44;101342.34;;;34.39;nan
21555;BME280;10938;44.794;-0.676;2022-07-25T06:45:11;101345.59;;;34.08;nan
21555;BME280;10938;44.794;-0.676;2022-07-25T06:47:37;101358.72;;;35.19;nan
21555;BME280;10938;44.794;-0.676;2022-07-25T06:50:09;101347.41;;;34.90;nan
21555;BME280;10938;44.794;-0.676;2022-07-25T06:52:34;101352.53;;;36.47;nan
21555;BME280;10938;44.794;-0.676;2022-07-25T06:55:02;101354.53;;;36.56;nan
21555;BME280;10938;44.794;-0.676;2022-07-25T06:57:28;101359.16;;;37.06;nan
21555;BME280;10938;44.794;-0.676;2022-07-25T06:59:53;101366.06;;;37.10;nan
21555;BME280;10938;44.794;-0.676;2022-07-25T07:02:19;101372.25;;;37.12;nan
21555;BME280;10938;44.794;-0.676;2022-07-25T07:04:44;101368.25;;;36.11;nan
21555;BME280;10938;44.794;-0.676;2022-07-25T07:07:10;101359.59;;;36.49;nan
21555;BME280;10938;44.794;-0.676;2022-07-25T07:09:35;101371.19;;;36.51;nan
21555;BME280;10938;44.794;-0.676;2022-07-25T07:12:01;101370.63;;;37.40;nan
21555;BME280;10938;44.794;-0.676;2022-07-25T07:14:26;101371.84;;;37.97;nan
21555;BME280;10938;44.794;-0.676;2022-07-25T07:16:52;101374.09;;;38.51;nan
21555;BME280;10938;44.794;-0.676;2022-07-25T07:19:17;101383.47;;;39.33;nan
21555;BME280;10938;44.794;-0.676;2022-07-25T07:21:42;101386.00;;;39.99;nan
21555;BME280;10938;44.794;-0.676;2022-07-25T07:24:09;101381.72;;;40.85;nan
21555;BME280;10938;44.794;-0.676;2022-07-25T07:26:34;101389.44;;;40.01;nan
21555;BME280;10938;44.794;-0.676;2022-07-25T07:29:00;101402.53;;;44.82;nan
21555;BME280;10938;44.794;-0.676;2022-07-25T07:31:27;101421.69;;;51.12;nan
21555;BME280;10938;44.794;-0.676;2022-07-25T07:33:53;101412.22;;;51.92;nan
21555;BME280;10938;44.794;-0.676;2022-07-25T07:36:20;101419.19;;;52.96;nan
21555;BME280;10938;44.794;-0.676;2022-07-25T07:38:45;101427.75;;;54.94;nan
21555;BME280;10938;44.794;-0.676;2022-07-25T07:41:13;101417.72;;;54.48;nan
21555;BME280;10938;44.794;-0.676;2022-07-25T07:43:38;101414.19;;;50.88;nan
21555;BME280;10938;44.794;-0.676;2022-07-25T07:46:04;101395.59;;;45.82;nan
21555;BME280;10938;44.794;-0.676;2022-07-25T07:48:30;101389.81;;;42.22;nan
21555;BME280;10938;44.794;-0.676;2022-07-25T07:50:57;101393.28;;;39.81;nan
21555;BME280;10938;44.794;-0.676;2022-07-25T07:53:22;101384.78;;;38.33;nan
21555;BME280;10938;44.794;-0.676;2022-07-25T07:56:08;101387.34;;;37.26;nan
21555;BME280;10938;44.794;-0.676;2022-07-25T07:58:33;101394.22;;;37.30;nan
21555;BME280;10938;44.794;-0.676;2022-07-25T08:00:59;101391.97;;;37.66;nan
21555;BME280;10938;44.794;-0.676;2022-07-25T08:03:24;101395.31;;;38.47;nan
21555;BME280;10938;44.794;-0.676;2022-07-25T08:05:50;101409.34;;;46.32;nan
21555;BME280;10938;44.794;-0.676;2022-07-25T08:08:16;101417.50;;;47.66;nan
21555;BME280;10938;44.794;-0.676;2022-07-25T08:10:44;101406.69;;;44.55;nan
21555;BME280;10938;44.794;-0.676;2022-07-25T08:13:18;101403.53;;;41.20;nan
21555;BME280;10938;44.794;-0.676;2022-07-25T08:15:46;101396.44;;;40.13;nan
21555;BME280;10938;44.794;-0.676;2022-07-25T08:18:12;101389.31;;;38.63;nan
21555;BME280;10938;44.794;-0.676;2022-07-25T08:20:38;101405.41;;;43.34;nan
21555;BME280;10938;44.794;-0.676;2022-07-25T08:23:04;101416.09;;;50.94;nan
21555;BME280;10938;44.794;-0.676;2022-07-25T08:25:30;101423.22;;;54.43;nan
21555;BME280;10938;44.794;-0.676;2022-07-25T08:27:56;101436.59;;;57.33;nan
21555;BME280;10938;44.794;-0.676;2022-07-25T08:30:22;101422.41;;;57.13;nan
21555;BME280;10938;44.794;-0.676;2022-07-25T08:32:53;101412.94;;;51.70;nan
21555;BME280;10938;44.794;-0.676;2022-07-25T08:35:19;101398.41;;;46.60;nan
21555;BME280;10938;44.794;-0.676;2022-07-25T08:37:47;101387.78;;;42.56;nan
21555;BME280;10938;44.794;-0.676;2022-07-25T08:40:15;101380.94;;;40.92;nan
21555;BME280;10938;44.794;-0.676;2022-07-25T08:42:41;101380.59;;;39.89;nan
21555;BME280;10938;44.794;-0.676;2022-07-25T08:45:08;101389.66;;;39.90;nan
21555;BME280;10938;44.794;-0.676;2022-07-25T08:47:34;101401.47;;;45.93;nan
21555;BME280;10938;44.794;-0.676;2022-07-25T08:50:06;101405.00;;;47.77;nan
21555;BME280;10938;44.794;-0.676;2022-07-25T08:52:31;101405.53;;;46.76;nan
21555;BME280;10938;44.794;-0.676;2022-07-25T08:55:03;101405.19;;;43.99;nan
21555;BME280;10938;44.794;-0.676;2022-07-25T08:57:29;101401.75;;;41.63;nan
21555;BME280;10938;44.794;-0.676;2022-07-25T08:59:58;101399.44;;;40.73;nan
21555;BME280;10938;44.794;-0.676;2022-07-25T09:02:27;101410.53;;;45.58;nan
21555;BME280;10938;44.794;-0.676;2022-07-25T09:04:54;101429.88;;;52.16;nan
21555;BME280;10938;44.794;-0.676;2022-07-25T09:07:36;101444.50;;;56.68;nan
21555;BME280;10938;44.794;-0.676;2022-07-25T09:15:28;101438.06;;;59.14;nan
21555;BME280;10938;44.794;-0.676;2022-07-25T09:17:56;101436.34;;;59.28;nan
21555;BME280;10938;44.794;-0.676;2022-07-25T09:20:22;101438.72;;;60.92;nan
21555;BME280;10938;44.794;-0.676;2022-07-25T09:22:48;101437.38;;;62.36;nan
21555;BME280;10938;44.794;-0.676;2022-07-25T09:25:26;101425.47;;;61.40;nan
21555;BME280;10938;44.794;-0.676;2022-07-25T09:27:54;101439.91;;;60.47;nan
21555;BME280;10938;44.794;-0.676;2022-07-25T09:30:20;101427.50;;;60.09;nan
21555;BME280;10938;44.794;-0.676;2022-07-25T09:32:46;101410.75;;;55.17;nan
21555;BME280;10938;44.794;-0.676;2022-07-25T09:35:12;101406.16;;;54.89;nan
21555;BME280;10938;44.794;-0.676;2022-07-25T09:37:38;101417.69;;;57.76;nan
21555;BME280;10938;44.794;-0.676;2022-07-25T09:40:14;101415.50;;;57.93;nan
21555;BME280;10938;44.794;-0.676;2022-07-25T09:42:40;101403.19;;;53.26;nan
21555;BME280;10938;44.794;-0.676;2022-07-25T09:45:13;101397.06;;;50.41;nan
21555;BME280;10938;44.794;-0.676;2022-07-25T09:47:51;101393.66;;;47.31;nan
21555;BME280;10938;44.794;-0.676;2022-07-25T09:50:18;101383.88;;;46.73;nan
21555;BME280;10938;44.794;-0.676;2022-07-25T09:52:44;101382.81;;;44.93;nan
21555;BME280;10938;44.794;-0.676;2022-07-25T09:55:10;101389.00;;;44.57;nan
21555;BME280;10938;44.794;-0.676;2022-07-25T09:57:39;101392.03;;;43.86;nan
21555;BME280;10938;44.794;-0.676;2022-07-25T10:00:07;101390.63;;;43.90;nan
21555;BME280;10938;44.794;-0.676;2022-07-25T10:08:21;101400.06;;;43.57;nan
21555;BME280;10938;44.794;-0.676;2022-07-25T10:10:47;101398.50;;;44.24;nan
21555;BME280;10938;44.794;-0.676;2022-07-25T10:13:15;101402.97;;;43.94;nan
21555;BME280;10938;44.794;-0.676;2022-07-25T10:15:52;101400.97;;;44.19;nan
21555;BME280;10938;44.794;-0.676;2022-07-25T10:18:20;101407.78;;;43.37;nan
21555;BME280;10938;44.794;-0.676;2022-07-25T10:20:49;101410.75;;;43.75;nan
21555;BME280;10938;44.794;-0.676;2022-07-25T10:23:27;101414.34;;;44.90;nan
21555;BME280;10938;44.794;-0.676;2022-07-25T10:28:43;101409.19;;;43.33;nan
21555;BME280;10938;44.794;-0.676;2022-07-25T10:34:01;101414.28;;;43.99;nan
21555;BME280;10938;44.794;-0.676;2022-07-25T10:36:45;101415.00;;;44.24;nan
21555;BME280;10938;44.794;-0.676;2022-07-25T10:39:13;101409.59;;;44.39;nan
21555;BME280;10938;44.794;-0.676;2022-07-25T10:41:41;101413.31;;;43.29;nan
21555;BME280;10938;44.794;-0.676;2022-07-25T10:44:14;101420.22;;;42.69;nan
21555;BME280;10938;44.794;-0.676;2022-07-25T10:46:41;101417.19;;;41.12;nan
21555;BME280;10938;44.794;-0.676;2022-07-25T10:49:23;101412.69;;;40.68;nan
21555;BME280;10938;44.794;-0.676;2022-07-25T10:51:56;101413.22;;;40.89;nan
21555;BME280;10938;44.794;-0.676;2022-07-25T10:54:23;101424.38;;;41.13;nan
21555;BME280;10938;44.794;-0.676;2022-07-25T10:56:56;101422.97;;;41.35;nan
21555;BME280;10938;44.794;-0.676;2022-07-25T10:59:35;101430.19;;;41.10;nan
21555;BME280;10938;44.794;-0.676;2022-07-25T11:02:06;101421.69;;;40.95;nan
21555;BME280;10938;44.794;-0.676;2022-07-25T11:04:32;101434.97;;;40.73;nan
21555;BME280;10938;44.794;-0.676;2022-07-25T11:07:27;101438.69;;;41.07;nan
21555;BME280;10938;44.794;-0.676;2022-07-25T11:10:01;101440.16;;;40.31;nan
21555;BME280;10938;44.794;-0.676;2022-07-25T11:12:27;101439.25;;;40.22;nan
21555;BME280;10938;44.794;-0.676;2022-07-25T11:15:00;101432.09;;;40.56;nan
21555;BME280;10938;44.794;-0.676;2022-07-25T11:17:25;101433.38;;;41.31;nan
21555;BME280;10938;44.794;-0.676;2022-07-25T11:22:21;101437.69;;;41.59;nan
21555;BME280;10938;44.794;-0.676;2022-07-25T11:24:47;101445.13;;;42.17;nan
21555;BME280;10938;44.794;-0.676;2022-07-25T11:27:23;101432.25;;;43.00;nan
21555;BME280;10938;44.794;-0.676;2022-07-25T11:29:49;101444.53;;;43.44;nan
21555;BME280;10938;44.794;-0.676;2022-07-25T11:32:15;101430.59;;;44.32;nan
21555;BME280;10938;44.794;-0.676;2022-07-25T11:34:51;101440.34;;;43.73;nan
21555;BME280;10938;44.794;-0.676;2022-07-25T11:37:18;101433.59;;;42.96;nan
21555;BME280;10938;44.794;-0.676;2022-07-25T11:39:46;101422.81;;;41.96;nan
21555;BME280;10938;44.794;-0.676;2022-07-25T11:42:14;101424.22;;;41.15;nan
21555;BME280;10938;44.794;-0.676;2022-07-25T11:44:45;101420.75;;;41.64;nan
21555;BME280;10938;44.794;-0.676;2022-07-25T11:47:31;101412.94;;;42.19;nan
21555;BME280;10938;44.794;-0.676;2022-07-25T11:49:59;101423.28;;;43.14;nan
21555;BME280;10938;44.794;-0.676;2022-07-25T11:55:03;101434.59;;;42.46;nan
21555;BME280;10938;44.794;-0.676;2022-07-25T11:57:32;101437.38;;;41.63;nan
21555;BME280;10938;44.794;-0.676;2022-07-25T12:00:00;101439.75;;;41.14;nan
21555;BME280;10938;44.794;-0.676;2022-07-25T12:04:53;101454.56;;;40.50;nan
21555;BME280;10938;44.794;-0.676;2022-07-25T12:07:18;101468.88;;;40.17;nan
21555;BME280;10938;44.794;-0.676;2022-07-25T12:09:54;101473.50;;;39.43;nan
21555;BME280;10938;44.794;-0.676;2022-07-25T12:12:20;101477.22;;;39.42;nan
21555;BME280;10938;44.794;-0.676;2022-07-25T12:14:45;101470.94;;;39.22;nan
21555;BME280;10938;44.794;-0.676;2022-07-25T12:17:11;101472.06;;;39.10;nan
21555;BME280;10938;44.794;-0.676;2022-07-25T12:19:38;101480.59;;;39.73;nan
21555;BME280;10938;44.794;-0.676;2022-07-25T12:22:04;101465.75;;;40.39;nan
21555;BME280;10938;44.794;-0.676;2022-07-25T12:24:29;101459.00;;;41.22;nan
21555;BME280;10938;44.794;-0.676;2022-07-25T12:26:54;101455.81;;;41.60;nan
21555;BME280;10938;44.794;-0.676;2022-07-25T12:29:20;101450.59;;;41.75;nan
21555;BME280;10938;44.794;-0.676;2022-07-25T12:31:45;101447.28;;;42.39;nan
21555;BME280;10938;44.794;-0.676;2022-07-25T12:34:11;101443.56;;;43.05;nan
21555;BME280;10938;44.794;-0.676;2022-07-25T12:36:36;101438.19;;;43.28;nan
21555;BME280;10938;44.794;-0.676;2022-07-25T12:39:08;101436.00;;;42.99;nan
21555;BME280;10938;44.794;-0.676;2022-07-25T12:41:34;101434.81;;;42.85;nan
21555;BME280;10938;44.794;-0.676;2022-07-25T12:43:59;101419.06;;;43.03;nan
21555;BME280;10938;44.794;-0.676;2022-07-25T12:46:27;101414.91;;;42.91;nan
21555;BME280;10938;44.794;-0.676;2022-07-25T12:48:52;101408.78;;;42.15;nan
21555;BME280;10938;44.794;-0.676;2022-07-25T12:51:18;101410.91;;;42.29;nan
21555;BME280;10938;44.794;-0.676;2022-07-25T12:53:44;101413.38;;;41.65;nan
21555;BME280;10938;44.794;-0.676;2022-07-25T12:56:10;101404.78;;;41.85;nan
21555;BME280;10938;44.794;-0.676;2022-07-25T12:58:35;101406.50;;;41.60;nan
21555;BME280;10938;44.794;-0.676;2022-07-25T13:01:01;101412.69;;;40.68;nan
21555;BME280;10938;44.794;-0.676;2022-07-25T13:03:27;101416.59;;;40.47;nan
21555;BME280;10938;44.794;-0.676;2022-07-25T13:05:52;101435.91;;;39.64;nan
21555;BME280;10938;44.794;-0.676;2022-07-25T13:08:18;101422.69;;;39.96;nan
21555;BME280;10938;44.794;-0.676;2022-07-25T13:10:43;101424.34;;;40.07;nan
21555;BME280;10938;44.794;-0.676;2022-07-25T13:13:09;101428.78;;;40.35;nan
21555;BME280;10938;44.794;-0.676;2022-07-25T13:15:34;101430.53;;;40.54;nan
21555;BME280;10938;44.794;-0.676;2022-07-25T13:18:01;101420.59;;;40.35;nan
21555;BME280;10938;44.794;-0.676;2022-07-25T13:20:27;101408.00;;;40.42;nan
21555;BME280;10938;44.794;-0.676;2022-07-25T13:22:53;101416.56;;;39.85;nan